sensor_id;sensor_type;location;lat;lon;timestamp;pressure;altitude;pressure_sealevel;temperature;humidity
17525;BME280;40431;52.198;9.902;2023-11-21T00:00:38;100068.75;;;7.56;100.00
17525;BME280;40431;52.198;9.902;2023-11-21T00:03:05;100072.06;;;7.61;100.00
17525;BME280;40431;52.198;9.902;2023-11-21T00:05:33;100079.22;;;7.62;100.00
17525;BME280;40431;52.198;9.902;2023-11-21T00:08:00;100075.53;;;7.63;100.00
17525;BME280;40431;52.198;9.902;2023-11-21T00:10:27;100074.41;;;7.67;100.00
17525;BME280;40431;52.198;9.902;2023-11-21T00:12:53;100081.53;;;7.68;100.00
17525;BME280;40431;52.198;9.902;2023-11-21T00:15:20;100080.59;;;7.69;100.00
17525;BME280;40431;52.198;9.902;2023-11-21T00:17:47;100086.19;;;7.66;100.00
17525;BME280;40431;52.198;9.902;2023-11-21T00:20:13;100089.63;;;7.68;100.00
17525;BME280;40431;52.198;9.902;2023-11-21T00:22:41;100091.22;;;7.72;100.00
17525;BME280;40431;52.198;9.902;2023-11-21T00:25:08;100091.13;;;7.74;100.00
17525;BME280;40431;52.198;9.902;2023-11-21T00:27:35;100092.09;;;7.73;100.00
17525;BME280;40431;52.198;9.902;2023-11-21T00:30:02;100093.13;;;7.70;100.00
17525;BME280;40431;52.198;9.902;2023-11-21T00:32:30;100102.09;;;7.71;100.00
17525;BME280;40431;52.198;9.902;2023-11-21T00:34:57;100096.00;;;7.67;100.00
17525;BME280;40431;52.198;9.902;2023-11-21T00:37:24;100095.03;;;7.68;100.00
17525;BME280;40431;52.198;9.902;2023-11-21T00:39:52;100093.22;;;7.68;100.00
17525;BME280;40431;52.198;9.902;2023-11-21T00:42:19;100094.84;;;7.71;100.00
17525;BME280;40431;52.198;9.902;2023-11-21T00:44:46;100097.66;;;7.69;100.00
17525;BME280;40431;52.198;9.902;2023-11-21T00:47:13;100097.50;;;7.73;100.00
17525;BME280;40431;52.198;9.902;2023-11-21T00:49:39;100095.75;;;7.72;100.00
17525;BME280;40431;52.198;9.902;2023-11-21T00:52:06;100091.56;;;7.66;100.00
17525;BME280;40431;52.198;9.902;2023-11-21T00:54:33;100099.72;;;7.64;100.00
17525;BME280;40431;52.198;9.902;2023-11-21T00:57:01;100098.97;;;7.62;100.00
17525;BME280;40431;52.198;9.902;2023-11-21T00:59:28;100098.97;;;7.62;100.00
17525;BME280;40431;52.198;9.902;2023-11-21T01:01:55;100101.47;;;7.65;100.00
17525;BME280;40431;52.198;9.902;2023-11-21T01:04:25;100105.06;;;7.66;100.00
17525;BME280;40431;52.198;9.902;2023-11-21T01:06:52;100103.56;;;7.76;100.00
17525;BME280;40431;52.198;9.902;2023-11-21T01:09:18;100112.78;;;7.72;100.00
17525;BME280;40431;52.198;9.902;2023-11-21T01:11:45;100111.94;;;7.72;100.00
17525;BME280;40431;52.198;9.902;2023-11-21T01:14:13;100119.94;;;7.73;100.00
17525;BME280;40431;52.198;9.902;2023-11-21T01:16:39;100127.25;;;7.71;100.00
17525;BME280;40431;52.198;9.902;2023-11-21T01:19:06;100120.03;;;7.72;100.00
17525;BME280;40431;52.198;9.902;2023-11-21T01:21:32;100129.09;;;7.71;100.00
17525;BME280;40431;52.198;9.902;2023-11-21T01:23:59;100129.88;;;7.73;100.00
17525;BME280;40431;52.198;9.902;2023-11-21T01:26:26;100134.38;;;7.72;100.00
17525;BME280;40431;52.198;9.902;2023-11-21T01:28:52;100133.25;;;7.76;100.00
17525;BME280;40431;52.198;9.902;2023-11-21T01:31:21;100132.31;;;7.77;100.00
17525;BME280;40431;52.198;9.902;2023-11-21T01:33:47;100128.66;;;7.78;100.00
17525;BME280;40431;52.198;9.902;2023-11-21T01:36:13;100130.56;;;7.76;100.00
17525;BME280;40431;52.198;9.902;2023-11-21T01:38:40;100120.47;;;7.80;100.00
17525;BME280;40431;52.198;9.902;2023-11-21T01:41:07;100135.63;;;7.82;100.00
17525;BME280;40431;52.198;9.902;2023-11-21T01:43:33;100139.44;;;7.78;100.00
17525;BME280;40431;52.198;9.902;2023-11-21T01:46:00;100142.06;;;7.80;100.00
17525;BME280;40431;52.198;9.902;2023-11-21T01:48:28;100136.47;;;7.83;100.00
17525;BME280;40431;52.198;9.902;2023-11-21T01:50:55;100138.41;;;7.81;100.00
17525;BME280;40431;52.198;9.902;2023-11-21T01:53:23;100139.19;;;7.83;100.00
17525;BME280;40431;52.198;9.902;2023-11-21T01:55:50;100142.91;;;7.80;100.00
17525;BME280;40431;52.198;9.902;2023-11-21T01:58:17;100137.47;;;7.82;100.00
17525;BME280;40431;52.198;9.902;2023-11-21T02:00:44;100140.94;;;7.84;100.00
17525;BME280;40431;52.198;9.902;2023-11-21T02:03:10;100141.72;;;7.86;100.00
17525;BME280;40431;52.198;9.902;2023-11-21T02:05:38;100146.41;;;7.82;100.00
17525;BME280;40431;52.198;9.902;2023-11-21T02:08:05;100151.81;;;7.82;100.00
17525;BME280;40431;52.198;9.902;2023-11-21T02:10:34;100145.63;;;7.80;100.00
17525;BME280;40431;52.198;9.902;2023-11-21T02:13:02;100149.44;;;7.76;100.00
17525;BME280;40431;52.198;9.902;2023-11-21T02:15:29;100156.59;;;7.77;100.00
17525;BME280;40431;52.198;9.902;2023-11-21T02:17:55;100154.50;;;7.82;100.00
17525;BME280;40431;52.198;9.902;2023-11-21T02:20:23;100152.69;;;7.83;100.00
17525;BME280;40431;52.198;9.902;2023-11-21T02:22:53;100153.72;;;7.80;100.00
17525;BME280;40431;52.198;9.902;2023-11-21T02:25:23;100152.84;;;7.80;100.00
17525;BME280;40431;52.198;9.902;2023-11-21T02:27:49;100156.50;;;7.79;100.00
17525;BME280;40431;52.198;9.902;2023-11-21T02:30:16;100154.78;;;7.78;100.00
17525;BME280;40431;52.198;9.902;2023-11-21T02:32:44;100160.19;;;7.78;100.00
17525;BME280;40431;52.198;9.902;2023-11-21T02:35:11;100159.91;;;7.82;100.00
17525;BME280;40431;52.198;9.902;2023-11-21T02:37:38;100168.19;;;7.79;100.00
17525;BME280;40431;52.198;9.902;2023-11-21T02:40:09;100167.31;;;7.79;100.00
17525;BME280;40431;52.198;9.902;2023-11-21T02:42:37;100169.91;;;7.80;100.00
17525;BME280;40431;52.198;9.902;2023-11-21T02:45:05;100166.44;;;7.78;100.00
17525;BME280;40431;52.198;9.902;2023-11-21T02:47:32;100162.78;;;7.79;100.00
17525;BME280;40431;52.198;9.902;2023-11-21T02:49:58;100164.69;;;7.77;100.00
17525;BME280;40431;52.198;9.902;2023-11-21T02:52:25;100161.91;;;7.79;100.00
17525;BME280;40431;52.198;9.902;2023-11-21T02:54:52;100160.88;;;7.81;100.00
17525;BME280;40431;52.198;9.902;2023-11-21T02:57:20;100157.03;;;7.85;100.00
17525;BME280;40431;52.198;9.902;2023-11-21T02:59:46;100161.75;;;7.82;100.00
17525;BME280;40431;52.198;9.902;2023-11-21T03:02:13;100163.66;;;7.80;100.00
17525;BME280;40431;52.198;9.902;2023-11-21T03:04:40;100160.88;;;7.81;100.00
17525;BME280;40431;52.198;9.902;2023-11-21T03:07:07;100162.63;;;7.82;100.00
17525;BME280;40431;52.198;9.902;2023-11-21T03:09:34;100165.59;;;7.78;100.00
17525;BME280;40431;52.198;9.902;2023-11-21T03:12:01;100169.91;;;7.80;100.00
17525;BME280;40431;52.198;9.902;2023-11-21T03:14:28;100176.19;;;7.81;100.00
17525;BME280;40431;52.198;9.902;2023-11-21T03:16:55;100189.69;;;7.81;100.00
17525;BME280;40431;52.198;9.902;2023-11-21T03:19:21;100182.31;;;7.84;100.00
17525;BME280;40431;52.198;9.902;2023-11-21T03:21:48;100190.66;;;7.80;100.00
17525;BME280;40431;52.198;9.902;2023-11-21T03:24:15;100192.56;;;7.78;100.00
17525;BME280;40431;52.198;9.902;2023-11-21T03:26:44;100200.81;;;7.75;100.00
17525;BME280;40431;52.198;9.902;2023-11-21T03:29:10;100202.75;;;7.73;100.00
17525;BME280;40431;52.198;9.902;2023-11-21T03:31:38;100208.81;;;7.76;100.00
17525;BME280;40431;52.198;9.902;2023-11-21T03:34:04;100210.75;;;7.74;100.00
17525;BME280;40431;52.198;9.902;2023-11-21T03:36:31;100212.66;;;7.72;100.00
17525;BME280;40431;52.198;9.902;2023-11-21T03:38:58;100219.81;;;7.73;100.00
17525;BME280;40431;52.198;9.902;2023-11-21T03:41:24;100211.00;;;7.69;100.00
17525;BME280;40431;52.198;9.902;2023-11-21T03:43:50;100214.66;;;7.68;100.00
17525;BME280;40431;52.198;9.902;2023-11-21T03:46:17;100219.09;;;7.69;100.00
17525;BME280;40431;52.198;9.902;2023-11-21T03:48:45;100226.50;;;7.66;100.00
17525;BME280;40431;52.198;9.902;2023-11-21T03:51:11;100220.06;;;7.68;100.00
17525;BME280;40431;52.198;9.902;2023-11-21T03:53:37;100221.97;;;7.66;100.00
17525;BME280;40431;52.198;9.902;2023-11-21T03:56:05;100228.22;;;7.67;100.00
17525;BME280;40431;52.198;9.902;2023-11-21T03:58:31;100225.28;;;7.72;100.00
17525;BME280;40431;52.198;9.902;2023-11-21T04:00:58;100231.63;;;7.71;100.00
17525;BME280;40431;52.198;9.902;2023-11-21T04:03:24;100226.31;;;7.69;100.00
17525;BME280;40431;52.198;9.902;2023-11-21T04:05:52;100225.38;;;7.70;100.00
17525;BME280;40431;52.198;9.902;2023-11-21T04:08:18;100220.84;;;7.71;100.00
17525;BME280;40431;52.198;9.902;2023-11-21T04:10:45;100226.06;;;7.74;100.00
17525;BME280;40431;52.198;9.902;2023-11-21T04:13:11;100231.44;;;7.74;100.00
17525;BME280;40431;52.198;9.902;2023-11-21T04:15:37;100235.19;;;7.71;100.00
17525;BME280;40431;52.198;9.902;2023-11-21T04:18:04;100236.09;;;7.72;100.00
17525;BME280;40431;52.198;9.902;2023-11-21T04:20:31;100237.66;;;7.76;100.00
17525;BME280;40431;52.198;9.902;2023-11-21T04:22:59;100237.66;;;7.76;100.00
17525;BME280;40431;52.198;9.902;2023-11-21T04:25:25;100244.94;;;7.74;100.00
17525;BME280;40431;52.198;9.902;2023-11-21T04:27:52;100253.00;;;7.75;100.00
17525;BME280;40431;52.198;9.902;2023-11-21T04:30:19;100249.50;;;7.73;100.00
17525;BME280;40431;52.198;9.902;2023-11-21T04:32:46;100251.72;;;7.65;100.00
17525;BME280;40431;52.198;9.902;2023-11-21T04:35:12;100254.53;;;7.63;100.00
17525;BME280;40431;52.198;9.902;2023-11-21T04:37:40;100259.03;;;7.63;100.00
17525;BME280;40431;52.198;9.902;2023-11-21T04:40:09;100261.81;;;7.61;100.00
17525;BME280;40431;52.198;9.902;2023-11-21T04:42:36;100258.47;;;7.56;100.00
17525;BME280;40431;52.198;9.902;2023-11-21T04:45:03;100272.53;;;7.63;100.00
17525;BME280;40431;52.198;9.902;2023-11-21T04:47:32;100277.16;;;7.61;100.00
17525;BME280;40431;52.198;9.902;2023-11-21T04:49:59;100274.53;;;7.59;100.00
17525;BME280;40431;52.198;9.902;2023-11-21T04:52:25;100278.91;;;7.62;100.00
17525;BME280;40431;52.198;9.902;2023-11-21T04:54:52;100276.25;;;7.60;100.00
17525;BME280;40431;52.198;9.902;2023-11-21T04:57:20;100287.94;;;7.61;100.00
17525;BME280;40431;52.198;9.902;2023-11-21T04:59:47;100286.19;;;7.60;100.00
17525;BME280;40431;52.198;9.902;2023-11-21T05:02:14;100290.63;;;7.61;100.00
17525;BME280;40431;52.198;9.902;2023-11-21T05:04:40;100301.50;;;7.59;100.00
17525;BME280;40431;52.198;9.902;2023-11-21T05:07:08;100300.78;;;7.56;100.00
17525;BME280;40431;52.198;9.902;2023-11-21T05:09:35;100302.53;;;7.57;100.00
17525;BME280;40431;52.198;9.902;2023-11-21T05:12:03;100300.78;;;7.56;100.00
17525;BME280;40431;52.198;9.902;2023-11-21T05:14:31;100305.25;;;7.57;100.00
17525;BME280;40431;52.198;9.902;2023-11-21T05:16:57;100303.31;;;7.59;100.00
17525;BME280;40431;52.198;9.902;2023-11-21T05:19:24;100304.75;;;7.48;100.00
17525;BME280;40431;52.198;9.902;2023-11-21T05:21:52;100309.19;;;7.49;100.00
17525;BME280;40431;52.198;9.902;2023-11-21T05:24:18;100310.78;;;7.53;100.00
17525;BME280;40431;52.198;9.902;2023-11-21T05:26:45;100309.06;;;7.52;100.00
17525;BME280;40431;52.198;9.902;2023-11-21T05:29:11;100314.28;;;7.56;100.00
17525;BME280;40431;52.198;9.902;2023-11-21T05:31:39;100313.47;;;7.53;100.00
17525;BME280;40431;52.198;9.902;2023-11-21T05:34:05;100317.84;;;7.56;100.00
17525;BME280;40431;52.198;9.902;2023-11-21T05:36:32;100318.75;;;7.57;100.00
17525;BME280;40431;52.198;9.902;2023-11-21T05:38:58;100326.75;;;7.58;100.00
17525;BME280;40431;52.198;9.902;2023-11-21T05:41:25;100330.31;;;7.59;100.00
17525;BME280;40431;52.198;9.902;2023-11-21T05:43:51;100333.09;;;7.57;100.00
17525;BME280;40431;52.198;9.902;2023-11-21T05:46:19;100337.69;;;7.55;100.00
17525;BME280;40431;52.198;9.902;2023-11-21T05:48:47;100338.56;;;7.56;100.00
17525;BME280;40431;52.198;9.902;2023-11-21T05:51:13;100337.69;;;7.55;100.00
17525;BME280;40431;52.198;9.902;2023-11-21T05:53:40;100339.59;;;7.53;100.00
17525;BME280;40431;52.198;9.902;2023-11-21T05:56:07;100348.25;;;7.60;100.00
17525;BME280;40431;52.198;9.902;2023-11-21T05:58:33;100340.47;;;7.53;100.00
17525;BME280;40431;52.198;9.902;2023-11-21T06:01:00;100346.56;;;7.57;100.00
17525;BME280;40431;52.198;9.902;2023-11-21T06:03:26;100347.59;;;7.55;100.00
17525;BME280;40431;52.198;9.902;2023-11-21T06:05:54;100355.88;;;7.51;100.00
17525;BME280;40431;52.198;9.902;2023-11-21T06:08:21;100356.66;;;7.53;100.00
17525;BME280;40431;52.198;9.902;2023-11-21T06:10:47;100360.94;;;7.58;100.00
17525;BME280;40431;52.198;9.902;2023-11-21T06:13:14;100362.84;;;7.56;100.00
17525;BME280;40431;52.198;9.902;2023-11-21T06:15:41;100363.03;;;7.52;100.00
17525;BME280;40431;52.198;9.902;2023-11-21T06:18:07;100360.47;;;7.49;100.00
17525;BME280;40431;52.198;9.902;2023-11-21T06:20:35;100373.00;;;7.50;100.00
17525;BME280;40431;52.198;9.902;2023-11-21T06:23:04;100376.50;;;7.52;100.00
17525;BME280;40431;52.198;9.902;2023-11-21T06:25:30;100381.31;;;7.46;100.00
17525;BME280;40431;52.198;9.902;2023-11-21T06:27:58;100380.47;;;7.45;100.00
17525;BME280;40431;52.198;9.902;2023-11-21T06:30:25;100386.03;;;7.42;100.00
17525;BME280;40431;52.198;9.902;2023-11-21T06:32:51;100398.41;;;7.46;100.00
17525;BME280;40431;52.198;9.902;2023-11-21T06:35:18;100394.75;;;7.47;100.00
17525;BME280;40431;52.198;9.902;2023-11-21T06:37:45;100394.59;;;7.50;100.00
17525;BME280;40431;52.198;9.902;2023-11-21T06:40:14;100399.97;;;7.50;100.00
17525;BME280;40431;52.198;9.902;2023-11-21T06:42:41;100406.09;;;7.54;100.00
17525;BME280;40431;52.198;9.902;2023-11-21T06:45:09;100400.78;;;7.52;100.00
17525;BME280;40431;52.198;9.902;2023-11-21T06:47:36;100411.59;;;7.52;100.00
17525;BME280;40431;52.198;9.902;2023-11-21T06:50:03;100420.47;;;7.55;100.00
17525;BME280;40431;52.198;9.902;2023-11-21T06:52:30;100430.13;;;7.59;100.00
17525;BME280;40431;52.198;9.902;2023-11-21T06:54:56;100419.50;;;7.56;100.00
17525;BME280;40431;52.198;9.902;2023-11-21T06:57:24;100432.06;;;7.57;100.00
17525;BME280;40431;52.198;9.902;2023-11-21T06:59:51;100433.88;;;7.56;100.00
17525;BME280;40431;52.198;9.902;2023-11-21T07:02:17;100434.13;;;7.51;100.00
17525;BME280;40431;52.198;9.902;2023-11-21T07:04:44;100437.59;;;7.53;100.00
17525;BME280;40431;52.198;9.902;2023-11-21T07:07:11;100441.41;;;7.49;100.00
17525;BME280;40431;52.198;9.902;2023-11-21T07:09:38;100445.69;;;7.53;100.00
17525;BME280;40431;52.198;9.902;2023-11-21T07:12:05;100452.66;;;7.58;100.00
17525;BME280;40431;52.198;9.902;2023-11-21T07:14:34;100449.19;;;7.56;100.00
17525;BME280;40431;52.198;9.902;2023-11-21T07:17:00;100453.66;;;7.57;100.00
17525;BME280;40431;52.198;9.902;2023-11-21T07:19:27;100464.50;;;7.55;100.00
17525;BME280;40431;52.198;9.902;2023-11-21T07:21:54;100467.16;;;7.57;100.00
17525;BME280;40431;52.198;9.902;2023-11-21T07:24:20;100471.56;;;7.58;100.00
17525;BME280;40431;52.198;9.902;2023-11-21T07:26:47;100477.13;;;7.55;100.00
17525;BME280;40431;52.198;9.902;2023-11-21T07:29:14;100475.38;;;7.53;100.00
17525;BME280;40431;52.198;9.902;2023-11-21T07:31:42;100490.84;;;7.50;100.00
17525;BME280;40431;52.198;9.902;2023-11-21T07:34:08;100498.59;;;7.39;100.00
17525;BME280;40431;52.198;9.902;2023-11-21T07:36:35;100498.28;;;7.26;100.00
17525;BME280;40431;52.198;9.902;2023-11-21T07:39:02;100502.41;;;7.15;100.00
17525;BME280;40431;52.198;9.902;2023-11-21T07:41:28;100512.03;;;7.02;100.00
17525;BME280;40431;52.198;9.902;2023-11-21T07:43:55;100517.84;;;6.93;100.00
17525;BME280;40431;52.198;9.902;2023-11-21T07:46:22;100514.34;;;6.91;100.00
17525;BME280;40431;52.198;9.902;2023-11-21T07:48:50;100518.28;;;6.83;100.00
17525;BME280;40431;52.198;9.902;2023-11-21T07:51:17;100521.97;;;6.81;100.00
17525;BME280;40431;52.198;9.902;2023-11-21T07:53:44;100531.88;;;6.80;100.00
17525;BME280;40431;52.198;9.902;2023-11-21T07:56:10;100530.09;;;6.79;100.00
17525;BME280;40431;52.198;9.902;2023-11-21T07:58:38;100545.50;;;6.77;100.00
17525;BME280;40431;52.198;9.902;2023-11-21T08:01:05;100546.72;;;6.70;100.00
17525;BME280;40431;52.198;9.902;2023-11-21T08:03:32;100552.03;;;6.72;100.00
17525;BME280;40431;52.198;9.902;2023-11-21T08:06:00;100554.75;;;6.72;100.00
17525;BME280;40431;52.198;9.902;2023-11-21T08:08:28;100553.84;;;6.71;100.00
17525;BME280;40431;52.198;9.902;2023-11-21T08:10:55;100557.28;;;6.75;100.00
17525;BME280;40431;52.198;9.902;2023-11-21T08:13:22;100561.06;;;6.71;100.00
17525;BME280;40431;52.198;9.902;2023-11-21T08:15:49;100569.28;;;6.67;100.00
17525;BME280;40431;52.198;9.902;2023-11-21T08:18:16;100574.47;;;6.72;100.00
17525;BME280;40431;52.198;9.902;2023-11-21T08:20:43;100582.78;;;6.67;100.00
17525;BME280;40431;52.198;9.902;2023-11-21T08:23:14;100588.34;;;6.63;100.00
17525;BME280;40431;52.198;9.902;2023-11-21T08:25:42;100585.81;;;6.60;100.00
17525;BME280;40431;52.198;9.902;2023-11-21T08:28:08;100594.66;;;6.62;100.00
17525;BME280;40431;52.198;9.902;2023-11-21T08:30:35;100611.66;;;6.64;100.00
17525;BME280;40431;52.198;9.902;2023-11-21T08:33:01;100604.66;;;6.60;100.00
17525;BME280;40431;52.198;9.902;2023-11-21T08:35:28;100610.22;;;6.55;100.00
17525;BME280;40431;52.198;9.902;2023-11-21T08:37:55;100617.38;;;6.56;100.00
17525;BME280;40431;52.198;9.902;2023-11-21T08:40:23;100612.59;;;6.63;100.00
17525;BME280;40431;52.198;9.902;2023-11-21T08:42:50;100624.38;;;6.60;100.00
17525;BME280;40431;52.198;9.902;2023-11-21T08:45:18;100625.28;;;6.61;100.00
17525;BME280;40431;52.198;9.902;2023-11-21T08:47:45;100627.81;;;6.64;100.00
17525;BME280;40431;52.198;9.902;2023-11-21T08:50:12;100626.06;;;6.63;100.00
17525;BME280;40431;52.198;9.902;2023-11-21T08:52:38;100620.16;;;6.55;100.00
17525;BME280;40431;52.198;9.902;2023-11-21T08:55:06;100618.09;;;6.39;100.00
17525;BME280;40431;52.198;9.902;2023-11-21T08:57:35;100629.94;;;6.35;100.00
17525;BME280;40431;52.198;9.902;2023-11-21T09:00:01;100636.22;;;6.35;100.00
17525;BME280;40431;52.198;9.902;2023-11-21T09:02:30;100635.34;;;6.35;100.00
17525;BME280;40431;52.198;9.902;2023-11-21T09:04:57;100639.25;;;6.28;100.00
17525;BME280;40431;52.198;9.902;2023-11-21T09:07:24;100648.50;;;6.21;100.00
17525;BME280;40431;52.198;9.902;2023-11-21T09:09:50;100651.72;;;6.29;100.00
17525;BME280;40431;52.198;9.902;2023-11-21T09:12:17;100671.56;;;6.28;100.00
17525;BME280;40431;52.198;9.902;2023-11-21T09:14:45;100658.88;;;6.30;100.00
17525;BME280;40431;52.198;9.902;2023-11-21T09:17:12;100665.16;;;6.30;100.00
17525;BME280;40431;52.198;9.902;2023-11-21T09:19:39;100672.34;;;6.30;100.00
17525;BME280;40431;52.198;9.902;2023-11-21T09:22:06;100675.31;;;6.24;100.00
17525;BME280;40431;52.198;9.902;2023-11-21T09:24:33;100682.63;;;6.20;100.00
17525;BME280;40431;52.198;9.902;2023-11-21T09:27:00;100680.69;;;6.24;100.00
17525;BME280;40431;52.198;9.902;2023-11-21T09:29:26;100686.31;;;6.17;100.00
17525;BME280;40431;52.198;9.902;2023-11-21T09:31:55;100692.78;;;6.13;100.00
17525;BME280;40431;52.198;9.902;2023-11-21T09:34:24;100699.91;;;6.14;100.00
17525;BME280;40431;52.198;9.902;2023-11-21T09:36:51;100703.31;;;6.20;100.00
17525;BME280;40431;52.198;9.902;2023-11-21T09:39:18;100707.63;;;6.24;100.00
17525;BME280;40431;52.198;9.902;2023-11-21T09:41:48;100716.81;;;6.18;100.00
17525;BME280;40431;52.198;9.902;2023-11-21T09:44:18;100728.28;;;6.23;100.00
17525;BME280;40431;52.198;9.902;2023-11-21T09:46:47;100727.28;;;6.26;100.00
17525;BME280;40431;52.198;9.902;2023-11-21T09:49:18;100727.03;;;6.32;100.00
17525;BME280;40431;52.198;9.902;2023-11-21T09:51:45;100726.91;;;6.35;100.00
17525;BME280;40431;52.198;9.902;2023-11-21T09:54:14;100738.22;;;6.43;100.00
17525;BME280;40431;52.198;9.902;2023-11-21T09:56:42;100740.81;;;6.46;100.00
17525;BME280;40431;52.198;9.902;2023-11-21T09:59:13;100744.38;;;6.47;100.00
17525;BME280;40431;52.198;9.902;2023-11-21T10:01:41;100741.88;;;6.42;100.00
17525;BME280;40431;52.198;9.902;2023-11-21T10:04:08;100741.06;;;6.40;100.00
17525;BME280;40431;52.198;9.902;2023-11-21T10:06:38;100746.06;;;6.49;100.00
17525;BME280;40431;52.198;9.902;2023-11-21T10:09:05;100752.94;;;6.57;100.00
17525;BME280;40431;52.198;9.902;2023-11-21T10:11:39;100748.31;;;6.60;100.00
17525;BME280;40431;52.198;9.902;2023-11-21T10:14:08;100751.69;;;6.65;100.00
17525;BME280;40431;52.198;9.902;2023-11-21T10:16:38;100753.53;;;6.65;100.00
17525;BME280;40431;52.198;9.902;2023-11-21T10:19:05;100754.31;;;6.67;100.00
17525;BME280;40431;52.198;9.902;2023-11-21T10:21:32;100757.72;;;6.72;100.00
17525;BME280;40431;52.198;9.902;2023-11-21T10:24:00;100759.47;;;6.73;100.00
17525;BME280;40431;52.198;9.902;2023-11-21T10:26:28;100763.34;;;6.66;100.00
17525;BME280;40431;52.198;9.902;2023-11-21T10:28:57;100768.13;;;6.59;100.00
17525;BME280;40431;52.198;9.902;2023-11-21T10:31:25;100768.75;;;6.66;100.00
17525;BME280;40431;52.198;9.902;2023-11-21T10:33:53;100768.50;;;6.72;100.00
17525;BME280;40431;52.198;9.902;2023-11-21T10:36:26;100766.56;;;6.76;100.00
17525;BME280;40431;52.198;9.902;2023-11-21T10:39:03;100782.78;;;6.74;100.00
17525;BME280;40431;52.198;9.902;2023-11-21T10:41:30;100778.88;;;6.81;100.00
17525;BME280;40431;52.198;9.902;2023-11-21T10:43:56;100783.44;;;6.79;100.00
17525;BME280;40431;52.198;9.902;2023-11-21T10:46:23;100784.28;;;6.81;100.00
17525;BME280;40431;52.198;9.902;2023-11-21T10:48:52;100785.53;;;6.73;100.00
17525;BME280;40431;52.198;9.902;2023-11-21T10:51:20;100792.50;;;6.78;100.00
17525;BME280;40431;52.198;9.902;2023-11-21T10:53:46;100798.91;;;6.76;100.00
17525;BME280;40431;52.198;9.902;2023-11-21T10:56:18;100790.88;;;6.74;100.00
17525;BME280;40431;52.198;9.902;2023-11-21T10:58:47;100798.13;;;6.72;100.00
17525;BME280;40431;52.198;9.902;2023-11-21T11:01:17;100798.97;;;6.74;100.00
17525;BME280;40431;52.198;9.902;2023-11-21T11:03:46;100812.31;;;6.77;100.00
17525;BME280;40431;52.198;9.902;2023-11-21T11:06:13;100810.69;;;6.73;100.00
17525;BME280;40431;52.198;9.902;2023-11-21T11:08:40;100815.38;;;6.68;100.00
17525;BME280;40431;52.198;9.902;2023-11-21T11:11:08;100813.50;;;6.70;100.00
17525;BME280;40431;52.198;9.902;2023-11-21T11:13:37;100820.56;;;6.73;100.00
17525;BME280;40431;52.198;9.902;2023-11-21T11:16:04;100825.16;;;6.71;100.00
17525;BME280;40431;52.198;9.902;2023-11-21T11:18:33;100821.38;;;6.75;100.00
17525;BME280;40431;52.198;9.902;2023-11-21T11:21:07;100815.25;;;6.71;100.00
17525;BME280;40431;52.198;9.902;2023-11-21T11:23:46;100826.03;;;6.71;100.00
17525;BME280;40431;52.198;9.902;2023-11-21T11:26:23;100823.69;;;6.62;100.00
17525;BME280;40431;52.198;9.902;2023-11-21T11:29:01;100834.25;;;6.68;100.00
17525;BME280;40431;52.198;9.902;2023-11-21T11:31:39;100830.72;;;6.66;100.00
17525;BME280;40431;52.198;9.902;2023-11-21T11:34:15;100824.41;;;6.67;100.00
17525;BME280;40431;52.198;9.902;2023-11-21T11:36:47;100828.38;;;6.57;100.00
17525;BME280;40431;52.198;9.902;2023-11-21T11:39:30;100834.47;;;6.62;100.00
17525;BME280;40431;52.198;9.902;2023-11-21T11:41:57;100832.69;;;6.62;100.00
17525;BME280;40431;52.198;9.902;2023-11-21T11:44:51;100833.69;;;6.60;100.00
17525;BME280;40431;52.198;9.902;2023-11-21T11:47:21;100835.44;;;6.61;100.00
17525;BME280;40431;52.198;9.902;2023-11-21T11:49:58;100838.94;;;6.63;100.00
17525;BME280;40431;52.198;9.902;2023-11-21T11:52:36;100842.94;;;6.75;100.00
17525;BME280;40431;52.198;9.902;2023-11-21T11:55:05;100850.72;;;6.82;100.00
17525;BME280;40431;52.198;9.902;2023-11-21T11:57:34;100848.22;;;6.78;100.00
17525;BME280;40431;52.198;9.902;2023-11-21T12:00:12;100854.50;;;6.78;100.00
17525;BME280;40431;52.198;9.902;2023-11-21T12:02:42;100851.81;;;6.78;100.00
17525;BME280;40431;52.198;9.902;2023-11-21T12:05:09;100856.22;;;6.79;100.00
17525;BME280;40431;52.198;9.902;2023-11-21T12:07:42;100860.13;;;6.72;100.00
17525;BME280;40431;52.198;9.902;2023-11-21T12:10:12;100862.81;;;6.72;100.00
17525;BME280;40431;52.198;9.902;2023-11-21T12:12:42;100853.81;;;6.73;100.00
17525;BME280;40431;52.198;9.902;2023-11-21T12:15:11;100854.72;;;6.72;100.00
17525;BME280;40431;52.198;9.902;2023-11-21T12:17:37;100864.50;;;6.75;100.00
17525;BME280;40431;52.198;9.902;2023-11-21T12:20:05;100870.66;;;6.78;100.00
17525;BME280;40431;52.198;9.902;2023-11-21T12:22:42;100873.22;;;6.81;100.00
17525;BME280;40431;52.198;9.902;2023-11-21T12:25:09;100880.25;;;6.85;100.00
17525;BME280;40431;52.198;9.902;2023-11-21T12:27:41;100884.47;;;6.93;100.00
17525;BME280;40431;52.198;9.902;2023-11-21T12:30:08;100883.00;;;6.84;100.00
17525;BME280;40431;52.198;9.902;2023-11-21T12:32:40;100877.69;;;6.82;100.00
17525;BME280;40431;52.198;9.902;2023-11-21T12:35:08;100886.34;;;6.91;100.00
17525;BME280;40431;52.198;9.902;2023-11-21T12:37:35;100888.97;;;6.92;100.00
17525;BME280;40431;52.198;9.902;2023-11-21T12:40:04;100883.69;;;6.89;100.00
17525;BME280;40431;52.198;9.902;2023-11-21T12:42:31;100877.56;;;6.85;100.00
17525;BME280;40431;52.198;9.902;2023-11-21T12:45:09;100893.03;;;6.80;100.00
17525;BME280;40431;52.198;9.902;2023-11-21T12:47:41;100901.03;;;6.82;100.00
17525;BME280;40431;52.198;9.902;2023-11-21T12:50:08;100905.56;;;6.81;100.00
17525;BME280;40431;52.198;9.902;2023-11-21T12:52:40;100906.28;;;6.87;100.00